createdAt,value
2022-10-20T00:00:30.931Z,5.90
2022-10-20T00:02:58.572Z,6.70
2022-10-20T00:05:26.680Z,6.40
2022-10-20T00:07:54.533Z,6.10
2022-10-20T00:10:22.593Z,5.80
2022-10-20T00:12:50.099Z,6.30
2022-10-20T00:15:18.985Z,6.50
2022-10-20T00:17:46.564Z,5.87
2022-10-20T00:22:42.735Z,5.50
2022-10-20T00:25:10.603Z,6.43
2022-10-20T00:27:38.100Z,6.13
2022-10-20T00:30:06.056Z,6.30
2022-10-20T00:32:35.194Z,5.53
2022-10-20T00:35:02.968Z,5.77
2022-10-20T00:37:30.807Z,5.80
2022-10-20T00:39:58.787Z,5.60
2022-10-20T00:42:26.310Z,5.37
2022-10-20T00:44:55.712Z,6.30
2022-10-20T00:47:31.858Z,5.70
2022-10-20T00:50:02.931Z,5.00
2022-10-20T00:52:50.331Z,5.10
2022-10-20T00:55:20.385Z,5.80
2022-10-20T00:57:50.549Z,5.90
2022-10-20T01:00:18.572Z,5.40
2022-10-20T01:02:46.646Z,6.00
2022-10-20T01:05:15.767Z,5.67
2022-10-20T01:07:43.801Z,4.90
2022-10-20T01:10:11.837Z,4.40
2022-10-20T01:12:43.292Z,5.63
2022-10-20T01:15:16.369Z,5.63
2022-10-20T01:17:46.963Z,4.60
2022-10-20T01:20:41.641Z,4.40
2022-10-20T01:23:33.309Z,4.77
2022-10-20T01:26:19.420Z,5.07
2022-10-20T01:28:52.194Z,5.03
2022-10-20T01:31:24.956Z,4.40
2022-10-20T01:33:56.342Z,5.17
2022-10-20T01:36:28.569Z,5.00
2022-10-20T01:39:01.629Z,4.90
2022-10-20T01:41:33.993Z,5.00
2022-10-20T01:44:04.650Z,4.87
2022-10-20T01:46:33.455Z,4.77
2022-10-20T01:49:02.391Z,4.77
2022-10-20T01:51:31.193Z,4.80
2022-10-20T01:54:00.082Z,4.83
2022-10-20T01:56:31.072Z,5.17
2022-10-20T01:59:10.286Z,4.97
2022-10-20T02:01:46.107Z,5.27
2022-10-20T02:04:14.715Z,4.43
2022-10-20T02:06:43.902Z,5.70
2022-10-20T02:09:14.870Z,4.73
2022-10-20T02:11:44.360Z,4.53
2022-10-20T02:14:14.609Z,4.97
2022-10-20T02:16:45.471Z,5.20
2022-10-20T02:19:15.562Z,5.20
2022-10-20T02:21:43.810Z,5.57
2022-10-20T02:24:11.436Z,5.57
2022-10-20T02:26:40.749Z,5.50
2022-10-20T02:29:12.055Z,6.07
2022-10-20T02:31:41.373Z,4.80
2022-10-20T02:34:09.449Z,5.13
2022-10-20T02:36:38.936Z,5.70
2022-10-20T02:39:07.035Z,5.17
2022-10-20T02:41:35.302Z,4.93
2022-10-20T02:44:03.244Z,5.73
2022-10-20T02:46:31.501Z,4.67
2022-10-20T02:49:00.496Z,4.90
2022-10-20T02:51:28.015Z,5.30
2022-10-20T02:53:56.023Z,5.00
2022-10-20T02:56:25.409Z,4.30
2022-10-20T02:58:55.560Z,4.87
2022-10-20T03:01:24.787Z,4.80
2022-10-20T03:03:55.701Z,4.87
2022-10-20T03:06:24.539Z,4.73
2022-10-20T03:08:51.995Z,5.10
2022-10-20T03:11:20.016Z,4.23
2022-10-20T03:13:47.575Z,5.00
2022-10-20T03:16:15.154Z,4.77
2022-10-20T03:18:43.047Z,4.60
2022-10-20T03:21:10.933Z,4.20
2022-10-20T03:23:39.755Z,4.57
2022-10-20T03:26:08.466Z,3.93
2022-10-20T03:28:36.027Z,4.70
2022-10-20T03:31:04.635Z,5.40
2022-10-20T03:33:32.114Z,4.80
2022-10-20T03:35:59.684Z,5.00
2022-10-20T03:38:27.241Z,4.80
2022-10-20T03:40:56.605Z,4.63
2022-10-20T03:43:24.093Z,4.80
2022-10-20T03:45:51.908Z,4.30
2022-10-20T03:48:19.575Z,4.57
2022-10-20T03:50:47.121Z,4.70
2022-10-20T03:53:15.084Z,5.00
2022-10-20T03:55:44.068Z,4.73
2022-10-20T03:58:12.900Z,4.80
2022-10-20T04:00:40.585Z,4.70
2022-10-20T04:03:08.062Z,4.90
2022-10-20T04:05:35.683Z,5.17
2022-10-20T04:08:04.169Z,4.77
2022-10-20T04:10:32.201Z,4.87
2022-10-20T04:12:59.736Z,4.27
2022-10-20T04:15:28.837Z,5.17
2022-10-20T04:17:56.524Z,5.57
2022-10-20T04:20:24.107Z,5.50
2022-10-20T04:22:51.567Z,5.60
2022-10-20T04:25:19.611Z,5.20
2022-10-20T04:27:47.079Z,5.50
2022-10-20T04:30:14.726Z,5.20
2022-10-20T04:32:43.719Z,6.00
2022-10-20T04:35:11.196Z,6.00
2022-10-20T04:37:39.179Z,6.47
2022-10-20T04:40:07.849Z,6.10
2022-10-20T04:42:35.722Z,5.77
2022-10-20T04:45:03.593Z,6.50
2022-10-20T04:47:32.486Z,6.40
2022-10-20T04:50:01.853Z,6.70
2022-10-20T04:52:29.635Z,6.30
2022-10-20T04:54:57.166Z,5.87
2022-10-20T04:57:24.716Z,5.70
2022-10-20T04:59:52.162Z,6.20
2022-10-20T05:02:20.030Z,5.60
2022-10-20T05:04:47.483Z,6.30
2022-10-20T05:07:16.483Z,6.27
2022-10-20T05:09:44.182Z,6.70
2022-10-20T05:12:11.903Z,6.53
2022-10-20T05:14:39.572Z,6.17
2022-10-20T05:17:09.342Z,6.10
2022-10-20T05:19:37.835Z,6.30
2022-10-20T05:22:05.513Z,6.40
2022-10-20T05:24:34.782Z,6.63
2022-10-20T05:27:02.541Z,7.73
2022-10-20T05:29:30.857Z,6.50
2022-10-20T05:31:58.712Z,6.43
2022-10-20T05:34:26.345Z,6.10
2022-10-20T05:36:54.159Z,6.47
2022-10-20T05:39:22.031Z,7.10
2022-10-20T05:41:51.030Z,6.70
2022-10-20T05:44:20.021Z,7.10
2022-10-20T05:46:48.192Z,6.60
2022-10-20T05:49:17.773Z,7.20
2022-10-20T05:51:45.712Z,7.10
2022-10-20T05:54:14.378Z,7.07
2022-10-20T05:56:42.286Z,6.90
2022-10-20T05:59:12.044Z,7.43
2022-10-20T06:01:47.986Z,6.93
2022-10-20T06:04:16.886Z,7.10
2022-10-20T06:06:45.271Z,8.20
2022-10-20T06:09:12.993Z,7.43
2022-10-20T06:11:40.845Z,7.50
2022-10-20T06:14:08.968Z,7.83
2022-10-20T06:16:37.952Z,7.80
2022-10-20T06:19:06.773Z,8.33
2022-10-20T06:21:35.275Z,7.70
2022-10-20T06:24:05.209Z,7.83
2022-10-20T06:26:34.472Z,8.80
2022-10-20T06:29:04.727Z,8.10
2022-10-20T06:31:33.654Z,8.70
2022-10-20T06:34:05.084Z,8.23
2022-10-20T06:36:34.873Z,8.67
2022-10-20T06:39:04.490Z,8.37
2022-10-20T06:41:32.461Z,9.13
2022-10-20T06:44:00.345Z,9.87
2022-10-20T06:46:49.125Z,9.20
2022-10-20T06:49:18.047Z,9.23
2022-10-20T06:51:45.669Z,10.13
2022-10-20T06:54:14.921Z,10.00
2022-10-20T06:56:42.385Z,11.00
2022-10-20T06:59:10.391Z,10.40
2022-10-20T07:01:39.629Z,10.00
2022-10-20T07:04:08.302Z,10.73
2022-10-20T07:06:37.842Z,11.27
2022-10-20T07:09:08.634Z,11.10
2022-10-20T07:11:36.642Z,9.80
2022-10-20T07:14:04.921Z,9.90
2022-10-20T07:16:33.837Z,10.63
2022-10-20T07:19:01.460Z,9.73
2022-10-20T07:21:34.990Z,9.57
2022-10-20T07:24:07.449Z,10.40
2022-10-20T07:26:36.347Z,9.87
2022-10-20T07:29:04.238Z,9.07
2022-10-20T07:31:32.588Z,9.57
2022-10-20T07:34:13.034Z,9.83
2022-10-20T07:36:49.260Z,9.87
2022-10-20T07:39:18.318Z,9.93
2022-10-20T07:41:47.785Z,9.70
2022-10-20T07:44:15.847Z,10.40
2022-10-20T07:46:43.735Z,10.60
2022-10-20T07:49:42.319Z,9.83
2022-10-20T07:51:59.524Z,9.70
2022-10-20T07:54:28.456Z,9.30
2022-10-20T07:56:56.140Z,9.30
2022-10-20T07:59:24.381Z,9.13
2022-10-20T08:01:54.755Z,8.60
2022-10-20T08:04:23.988Z,9.07
2022-10-20T08:06:51.506Z,8.20
2022-10-20T08:09:19.208Z,7.37
2022-10-20T08:11:51.428Z,6.43
2022-10-20T08:14:22.222Z,6.77
2022-10-20T08:16:49.719Z,7.00
2022-10-20T08:19:26.314Z,6.63
2022-10-20T08:21:54.241Z,5.73
2022-10-20T08:24:21.986Z,6.80
2022-10-20T08:26:50.832Z,6.20
2022-10-20T08:29:18.810Z,6.70
2022-10-20T08:31:46.329Z,6.67
2022-10-20T08:34:13.791Z,5.67
2022-10-20T08:36:41.786Z,6.70
2022-10-20T08:39:10.152Z,6.17
2022-10-20T08:42:02.491Z,6.40
2022-10-20T08:44:30.221Z,7.23
2022-10-20T08:46:57.901Z,7.17
2022-10-20T08:49:26.821Z,7.10
2022-10-20T08:51:54.854Z,7.60
2022-10-20T08:54:22.433Z,7.27
2022-10-20T08:56:49.911Z,6.20
2022-10-20T08:59:24.967Z,6.10
2022-10-20T09:01:54.409Z,6.10
2022-10-20T09:04:23.370Z,5.37
2022-10-20T09:06:52.797Z,6.00
2022-10-20T09:09:21.191Z,6.67
2022-10-20T09:11:48.848Z,6.23
2022-10-20T09:14:17.265Z,6.10
2022-10-20T09:16:59.929Z,6.10
2022-10-20T09:19:30.009Z,6.10
2022-10-20T09:21:59.904Z,6.80
2022-10-20T09:24:30.240Z,6.03
2022-10-20T09:27:05.480Z,5.90
2022-10-20T09:29:37.014Z,5.63
2022-10-20T09:32:27.293Z,6.30
2022-10-20T09:35:12.200Z,6.10
2022-10-20T09:37:39.990Z,6.63
2022-10-20T09:40:14.604Z,6.27
2022-10-20T09:42:44.988Z,5.77
2022-10-20T09:45:18.984Z,5.90
2022-10-20T09:47:47.345Z,5.40
2022-10-20T09:50:20.408Z,6.00
2022-10-20T09:52:48.793Z,5.70
2022-10-20T09:55:25.408Z,5.97
2022-10-20T09:57:54.522Z,7.20
2022-10-20T10:00:36.718Z,4.87
2022-10-20T10:03:09.710Z,6.13
2022-10-20T10:05:38.664Z,5.20
2022-10-20T10:08:06.235Z,4.73
2022-10-20T10:10:33.903Z,5.47
2022-10-20T10:13:04.114Z,4.97
2022-10-20T10:15:33.025Z,4.73
2022-10-20T10:18:01.438Z,4.30
2022-10-20T10:20:37.750Z,4.70
2022-10-20T10:23:26.018Z,4.63
2022-10-20T10:25:59.222Z,4.50
2022-10-20T10:28:38.212Z,4.10
2022-10-20T10:31:21.247Z,4.30
2022-10-20T10:33:51.546Z,4.33
2022-10-20T10:36:26.898Z,4.63
2022-10-20T10:38:56.592Z,4.70
2022-10-20T10:41:28.953Z,3.97
2022-10-20T10:44:01.212Z,4.70
2022-10-20T10:46:34.072Z,4.40
2022-10-20T10:49:20.583Z,4.57
2022-10-20T10:51:52.802Z,4.40
2022-10-20T10:54:25.834Z,4.07
2022-10-20T10:56:55.715Z,4.37
2022-10-20T10:59:24.260Z,4.33
2022-10-20T11:02:03.120Z,4.67
2022-10-20T11:04:40.499Z,4.53
2022-10-20T11:07:13.862Z,4.17
2022-10-20T11:09:45.835Z,4.37
2022-10-20T11:12:28.044Z,4.10
2022-10-20T11:15:00.826Z,4.07
2022-10-20T11:17:37.657Z,4.37
2022-10-20T11:20:19.989Z,4.67
2022-10-20T11:22:54.818Z,4.33
2022-10-20T11:25:27.023Z,3.87
2022-10-20T11:27:57.478Z,3.60
2022-10-20T11:30:27.348Z,3.60
2022-10-20T11:32:57.089Z,3.60
2022-10-20T11:35:29.990Z,3.53
2022-10-20T11:38:04.459Z,3.70
2022-10-20T11:40:33.271Z,3.60
2022-10-20T11:43:15.629Z,3.37
2022-10-20T11:45:46.158Z,4.10
2022-10-20T11:48:17.262Z,3.53
2022-10-20T11:50:49.980Z,4.20
2022-10-20T11:53:24.631Z,3.10
2022-10-20T11:56:03.084Z,3.17
2022-10-20T11:58:41.342Z,3.10
2022-10-20T12:01:24.143Z,4.13
2022-10-20T12:04:06.797Z,2.90
2022-10-20T12:07:07.697Z,3.23
2022-10-20T12:09:42.976Z,2.53
2022-10-20T12:12:12.661Z,3.57
2022-10-20T12:14:43.578Z,2.87
2022-10-20T12:17:15.839Z,3.87
2022-10-20T12:19:44.567Z,4.80
2022-10-20T12:22:30.811Z,3.00
2022-10-20T12:25:17.256Z,2.97
2022-10-20T12:27:44.944Z,2.97
2022-10-20T12:30:33.379Z,3.13
2022-10-20T12:33:17.194Z,2.60
2022-10-20T12:35:59.893Z,2.73
2022-10-20T12:38:28.278Z,3.50
2022-10-20T12:41:00.765Z,3.50
2022-10-20T12:43:33.057Z,3.63
2022-10-20T12:46:05.563Z,2.80
2022-10-20T12:48:35.812Z,3.30
2022-10-20T12:51:05.490Z,3.30
2022-10-20T12:53:33.586Z,3.33
2022-10-20T12:56:04.171Z,3.27
2022-10-20T12:58:33.290Z,3.73
2022-10-20T13:01:02.372Z,3.60
2022-10-20T13:03:39.684Z,3.53
2022-10-20T13:06:26.864Z,3.47
2022-10-20T13:09:11.281Z,3.10
2022-10-20T13:11:44.455Z,3.40
2022-10-20T13:14:23.032Z,3.30
2022-10-20T13:16:52.814Z,3.33
2022-10-20T13:19:24.618Z,3.87
2022-10-20T13:21:52.376Z,4.40
2022-10-20T13:24:31.298Z,4.23
2022-10-20T13:27:02.828Z,3.83
2022-10-20T13:29:34.251Z,4.57
2022-10-20T13:34:42.882Z,4.30
2022-10-20T13:37:30.184Z,4.00
2022-10-20T13:40:02.785Z,3.53
2022-10-20T13:42:41.511Z,3.57
2022-10-20T13:45:15.859Z,3.53
2022-10-20T13:47:47.956Z,4.00
2022-10-20T13:52:52.239Z,3.80
2022-10-20T13:55:20.683Z,4.10
2022-10-20T13:57:55.101Z,4.53
2022-10-20T14:00:25.305Z,4.00
2022-10-20T14:02:54.765Z,3.70
2022-10-20T14:05:24.028Z,4.63
2022-10-20T14:07:51.742Z,3.60
2022-10-20T14:10:23.980Z,3.50
2022-10-20T14:12:52.090Z,3.57
2022-10-20T14:15:22.482Z,3.70
2022-10-20T14:17:56.460Z,4.10
2022-10-20T14:20:25.974Z,3.80
2022-10-20T14:22:54.756Z,3.60
2022-10-20T14:25:22.904Z,4.50
2022-10-20T14:27:51.422Z,4.13
2022-10-20T14:30:19.650Z,5.07
2022-10-20T14:32:48.466Z,3.13
2022-10-20T14:35:18.822Z,3.90
2022-10-20T14:37:52.521Z,3.30
2022-10-20T14:40:21.486Z,3.47
2022-10-20T14:42:49.388Z,3.80
2022-10-20T14:45:21.706Z,3.13
2022-10-20T14:47:49.870Z,4.00
2022-10-20T14:50:21.491Z,3.67
2022-10-20T14:52:53.951Z,3.83
2022-10-20T14:55:31.290Z,2.97
2022-10-20T14:57:59.014Z,3.70
2022-10-20T15:00:28.504Z,6.13
2022-10-20T15:03:01.753Z,3.80
2022-10-20T15:05:33.651Z,4.80
2022-10-20T15:08:09.788Z,4.00
2022-10-20T15:10:37.384Z,4.80
2022-10-20T15:13:04.964Z,3.97
2022-10-20T15:15:37.578Z,4.07
2022-10-20T15:18:14.711Z,4.10
2022-10-20T15:20:43.487Z,3.87
2022-10-20T15:23:13.193Z,4.97
2022-10-20T15:25:47.366Z,5.17
2022-10-20T15:28:26.672Z,3.97
2022-10-20T15:30:54.544Z,4.73
2022-10-20T15:33:22.285Z,4.50
2022-10-20T15:35:50.817Z,6.63
2022-10-20T15:38:19.995Z,6.00
2022-10-20T15:40:47.548Z,4.60
2022-10-20T15:43:15.889Z,4.53
2022-10-20T15:45:45.310Z,4.70
2022-10-20T15:48:12.887Z,5.10
2022-10-20T15:50:40.662Z,5.10
2022-10-20T15:53:08.450Z,5.30
2022-10-20T15:55:39.069Z,5.30
2022-10-20T15:58:06.751Z,5.00
2022-10-20T16:00:34.447Z,4.90
2022-10-20T16:03:01.979Z,5.40
2022-10-20T16:05:29.566Z,5.20
2022-10-20T16:07:57.487Z,4.80
2022-10-20T16:10:28.421Z,5.20
2022-10-20T16:12:57.831Z,5.60
2022-10-20T16:15:30.211Z,7.23
2022-10-20T16:17:58.833Z,5.83
2022-10-20T16:20:26.361Z,6.20
2022-10-20T16:22:54.048Z,6.40
2022-10-20T16:25:21.825Z,7.33
2022-10-20T16:27:49.329Z,7.37
2022-10-20T16:30:18.323Z,5.83
2022-10-20T16:32:46.739Z,6.53
2022-10-20T16:35:14.227Z,7.37
2022-10-20T16:37:41.904Z,6.77
2022-10-20T16:40:10.187Z,6.60
2022-10-20T16:42:37.759Z,5.73
2022-10-20T16:45:05.654Z,6.00
2022-10-20T16:47:35.181Z,6.53
2022-10-20T16:50:03.372Z,6.40
2022-10-20T16:52:30.848Z,6.90
2022-10-20T16:54:58.669Z,6.43
2022-10-20T16:57:26.521Z,6.23
2022-10-20T16:59:54.180Z,7.07
2022-10-20T17:02:23.264Z,6.13
2022-10-20T17:04:52.245Z,6.70
2022-10-20T17:07:19.734Z,6.47
2022-10-20T17:09:47.703Z,6.37
2022-10-20T17:12:15.240Z,6.50
2022-10-20T17:14:42.947Z,6.80
2022-10-20T17:17:10.698Z,6.40
2022-10-20T17:19:40.942Z,7.00
2022-10-20T17:24:38.795Z,8.37
2022-10-20T17:27:06.359Z,8.83
2022-10-20T17:29:34.220Z,7.60
2022-10-20T17:32:01.695Z,6.60
2022-10-20T17:34:29.352Z,8.63
2022-10-20T17:36:57.047Z,7.13
2022-10-20T17:39:26.146Z,8.40
2022-10-20T17:41:53.859Z,7.20
2022-10-20T17:44:21.608Z,7.60
2022-10-20T17:46:49.120Z,7.20
2022-10-20T17:49:16.974Z,7.10
2022-10-20T17:51:44.808Z,6.73
2022-10-20T17:54:12.332Z,6.77
2022-10-20T17:56:41.162Z,6.73
2022-10-20T17:59:09.607Z,7.57
2022-10-20T18:01:37.918Z,6.57
2022-10-20T18:04:07.062Z,6.50
2022-10-20T18:06:35.419Z,6.30
2022-10-20T18:09:05.199Z,7.97
2022-10-20T18:11:33.996Z,10.67
2022-10-20T18:14:04.443Z,9.20
2022-10-20T18:16:33.122Z,12.10
2022-10-20T18:19:00.946Z,6.57
2022-10-20T18:21:29.487Z,11.13
2022-10-20T18:23:57.457Z,7.20
2022-10-20T18:26:25.444Z,7.80
2022-10-20T18:28:53.284Z,13.20
2022-10-20T18:31:23.364Z,7.20
2022-10-20T18:33:52.632Z,7.63
2022-10-20T18:36:20.165Z,7.40
2022-10-20T18:38:48.222Z,6.83
2022-10-20T18:41:17.168Z,7.20
2022-10-20T18:43:46.427Z,7.10
2022-10-20T18:46:14.462Z,7.63
2022-10-20T18:48:43.462Z,6.87
2022-10-20T18:51:11.732Z,7.17
2022-10-20T18:56:09.141Z,7.33
2022-10-20T18:58:38.523Z,7.07
2022-10-20T19:01:07.045Z,6.97
2022-10-20T19:03:34.973Z,7.20
2022-10-20T19:06:05.314Z,6.80
2022-10-20T19:08:32.932Z,6.83
2022-10-20T19:11:00.834Z,6.40
2022-10-20T19:13:28.930Z,7.03
2022-10-20T19:15:57.037Z,6.50
2022-10-20T19:18:25.137Z,6.23
2022-10-20T19:20:56.452Z,6.77
2022-10-20T19:23:25.812Z,6.70
2022-10-20T19:26:04.024Z,5.63
2022-10-20T19:28:32.228Z,6.40
2022-10-20T19:31:00.331Z,6.50
2022-10-20T19:33:28.549Z,6.63
2022-10-20T19:35:56.082Z,6.07
2022-10-20T19:38:25.063Z,6.50
2022-10-20T19:40:52.731Z,7.23
2022-10-20T19:43:20.645Z,8.33
2022-10-20T19:45:49.777Z,7.07
2022-10-20T19:48:17.736Z,6.33
2022-10-20T19:50:45.799Z,6.73
2022-10-20T19:53:13.317Z,8.20
2022-10-20T19:55:48.719Z,7.03
2022-10-20T19:58:16.696Z,6.63
2022-10-20T20:00:45.046Z,6.70
2022-10-20T20:03:13.689Z,6.50
2022-10-20T20:05:43.896Z,6.50
2022-10-20T20:08:14.801Z,6.30
2022-10-20T20:10:42.385Z,7.00
2022-10-20T20:13:11.438Z,7.03
2022-10-20T20:15:39.056Z,6.20
2022-10-20T20:18:06.661Z,6.23
2022-10-20T20:20:34.170Z,6.80
2022-10-20T20:23:02.388Z,8.10
2022-10-20T20:25:29.869Z,6.40
2022-10-20T20:27:57.480Z,7.83
2022-10-20T20:30:26.554Z,7.20
2022-10-20T20:32:54.443Z,7.73
2022-10-20T20:35:22.115Z,7.63
2022-10-20T20:37:49.774Z,6.50
2022-10-20T20:40:18.644Z,7.27
2022-10-20T20:42:46.801Z,6.83
2022-10-20T20:45:15.235Z,6.60
2022-10-20T20:47:46.670Z,6.33
2022-10-20T20:50:14.610Z,6.83
2022-10-20T20:52:42.267Z,7.70
2022-10-20T20:55:10.042Z,7.80
2022-10-20T20:57:37.897Z,6.90
2022-10-20T21:00:06.454Z,7.13
2022-10-20T21:02:33.989Z,7.87
2022-10-20T21:05:03.229Z,6.63
2022-10-20T21:07:31.022Z,8.60
2022-10-20T21:09:58.608Z,6.80
2022-10-20T21:12:27.911Z,7.73
2022-10-20T21:14:57.453Z,7.13
2022-10-20T21:17:24.974Z,7.57
2022-10-20T21:19:52.616Z,7.60
2022-10-20T21:22:21.718Z,6.27
2022-10-20T21:24:49.247Z,7.30
2022-10-20T21:27:16.729Z,7.10
2022-10-20T21:29:46.343Z,7.23
2022-10-20T21:32:14.329Z,7.60
2022-10-20T21:34:41.791Z,7.60
2022-10-20T21:37:09.698Z,7.20
2022-10-20T21:39:38.476Z,7.40
2022-10-20T21:42:06.274Z,7.83
2022-10-20T21:44:33.905Z,7.43
2022-10-20T21:47:01.663Z,8.10
2022-10-20T21:49:29.799Z,7.23
2022-10-20T21:51:58.243Z,7.40
2022-10-20T21:54:27.339Z,7.50
2022-10-20T21:56:56.845Z,7.87
2022-10-20T21:59:25.552Z,7.50
2022-10-20T22:01:53.749Z,6.93
2022-10-20T22:04:22.924Z,7.57
2022-10-20T22:06:50.485Z,7.80
2022-10-20T22:09:18.713Z,7.60
2022-10-20T22:11:47.163Z,6.90
2022-10-20T22:14:16.321Z,7.40
2022-10-20T22:16:44.107Z,7.00
2022-10-20T22:19:13.294Z,7.63
2022-10-20T22:21:41.842Z,7.33
2022-10-20T22:24:09.584Z,7.30
2022-10-20T22:26:37.377Z,7.30
2022-10-20T22:29:06.419Z,7.70
2022-10-20T22:31:35.046Z,7.60
2022-10-20T22:34:04.496Z,8.80
2022-10-20T22:36:32.462Z,8.50
2022-10-20T22:39:00.157Z,8.67
2022-10-20T22:41:27.775Z,8.70
2022-10-20T22:43:55.808Z,9.10
2022-10-20T22:46:23.341Z,9.30
2022-10-20T22:48:50.886Z,9.50
2022-10-20T22:51:21.536Z,8.90
2022-10-20T22:53:49.049Z,9.50
2022-10-20T22:56:17.100Z,10.00
2022-10-20T22:58:44.957Z,9.80
2022-10-20T23:01:13.888Z,10.30
2022-10-20T23:03:41.594Z,9.97
2022-10-20T23:06:09.621Z,10.13
2022-10-20T23:08:43.304Z,10.33
2022-10-20T23:11:10.954Z,10.40
2022-10-20T23:13:38.537Z,10.47
2022-10-20T23:16:06.458Z,10.23
2022-10-20T23:18:34.551Z,10.10
2022-10-20T23:21:02.446Z,9.80
2022-10-20T23:23:30.195Z,9.87
2022-10-20T23:26:02.267Z,10.37
2022-10-20T23:28:32.224Z,10.27
2022-10-20T23:31:10.421Z,10.50
2022-10-20T23:33:38.043Z,10.93
2022-10-20T23:36:05.831Z,10.60
2022-10-20T23:38:33.861Z,10.90
2022-10-20T23:41:02.741Z,10.87
2022-10-20T23:43:30.247Z,10.60
2022-10-20T23:45:58.351Z,10.83
2022-10-20T23:48:26.064Z,12.17
2022-10-20T23:50:53.522Z,11.47
2022-10-20T23:53:21.552Z,12.70
2022-10-20T23:55:49.004Z,12.73
2022-10-20T23:58:21.251Z,12.23
